Aviation Digital Data Service (ADDS)

Output produced by METARs form (2152 UTC 16 February 2019)
found at http://www.aviationweather.gov/metar/data/
 
METAR text: EFOU 162150Z AUTO 27020KT 9999 OVC050/// 02/M03 Q0987
Conditions at: EFOU (OULU/ULEABORG , FI) observed 2150 UTC 16 February 2019
Temperature: 2.0°C (36°F)
Dewpoint: -3.0°C (27°F) [RH = 69%]
Pressure (altimeter): 29.14 inches Hg (987.0 mb)
Winds: from the W (270 degrees) at 23 MPH (20 knots; 10.3 m/s)
Visibility: 6 or more miles (10+ km)
Ceiling: 5000 feet AGL
Clouds: overcast cloud deck at 5000 feet AGL
Weather: no significant weather observed at this time

METAR text: EFOU 162120Z AUTO 27023G33KT 9999 OVC053/// 01/M02 Q0987
Conditions at: EFOU (OULU/ULEABORG , FI) observed 2120 UTC 16 February 2019
Temperature: 1.0°C (34°F)
Dewpoint: -2.0°C (28°F) [RH = 80%]
Pressure (altimeter): 29.14 inches Hg (987.0 mb)
Winds: from the W (270 degrees) at 26 MPH (23 knots; 11.8 m/s)
gusting to 38 MPH (33 knots; 17.0 m/s)
Visibility: 6 or more miles (10+ km)
Ceiling: 5300 feet AGL
Clouds: overcast cloud deck at 5300 feet AGL
Weather: no significant weather observed at this time

METAR text: EFOU 162050Z AUTO 27025G35KT 9999 BKN058/// OVC075/// 02/M03 Q0986
Conditions at: EFOU (OULU/ULEABORG , FI) observed 2050 UTC 16 February 2019
Temperature: 2.0°C (36°F)
Dewpoint: -3.0°C (27°F) [RH = 69%]
Pressure (altimeter): 29.11 inches Hg (986.0 mb)
Winds: from the W (270 degrees) at 29 MPH (25 knots; 12.9 m/s)
gusting to 40 MPH (35 knots; 18.0 m/s)
Visibility: 6 or more miles (10+ km)
Ceiling: 5800 feet AGL
Clouds: broken clouds at 5800 feet AGL
overcast cloud deck at 7500 feet AGL
Weather: no significant weather observed at this time

METAR text: EFOU 162020Z AUTO 26025G35KT 9999 OVC056/// 02/M04 Q0986
Conditions at: EFOU (OULU/ULEABORG , FI) observed 2020 UTC 16 February 2019
Temperature: 2.0°C (36°F)
Dewpoint: -4.0°C (25°F) [RH = 64%]
Pressure (altimeter): 29.11 inches Hg (986.0 mb)
Winds: from the W (260 degrees) at 29 MPH (25 knots; 12.9 m/s)
gusting to 40 MPH (35 knots; 18.0 m/s)
Visibility: 6 or more miles (10+ km)
Ceiling: 5600 feet AGL
Clouds: overcast cloud deck at 5600 feet AGL
Weather: no significant weather observed at this time

METAR text: EFOU 161950Z AUTO 25026G37KT 9999 OVC054/// 02/M04 Q0986
Conditions at: EFOU (OULU/ULEABORG , FI) observed 1950 UTC 16 February 2019
Temperature: 2.0°C (36°F)
Dewpoint: -4.0°C (25°F) [RH = 64%]
Pressure (altimeter): 29.11 inches Hg (986.0 mb)
Winds: from the WSW (250 degrees) at 30 MPH (26 knots; 13.4 m/s)
gusting to 43 MPH (37 knots; 19.0 m/s)
Visibility: 6 or more miles (10+ km)
Ceiling: 5400 feet AGL
Clouds: overcast cloud deck at 5400 feet AGL
Weather: no significant weather observed at this time

METAR text: EFOU 161920Z AUTO 25024G35KT 9999 BKN052/// OVC069/// 02/M05 Q0986
Conditions at: EFOU (OULU/ULEABORG , FI) observed 1920 UTC 16 February 2019
Temperature: 2.0°C (36°F)
Dewpoint: -5.0°C (23°F) [RH = 60%]
Pressure (altimeter): 29.11 inches Hg (986.0 mb)
Winds: from the WSW (250 degrees) at 28 MPH (24 knots; 12.3 m/s)
gusting to 40 MPH (35 knots; 18.0 m/s)
Visibility: 6 or more miles (10+ km)
Ceiling: 5200 feet AGL
Clouds: broken clouds at 5200 feet AGL
overcast cloud deck at 6900 feet AGL
Weather: no significant weather observed at this time

METAR text: EFOU 161850Z AUTO 25023G36KT 9999 FEW058/// SCT084/// 02/M05 Q0987
Conditions at: EFOU (OULU/ULEABORG , FI) observed 1850 UTC 16 February 2019
Temperature: 2.0°C (36°F)
Dewpoint: -5.0°C (23°F) [RH = 60%]
Pressure (altimeter): 29.14 inches Hg (987.0 mb)
Winds: from the WSW (250 degrees) at 26 MPH (23 knots; 11.8 m/s)
gusting to 41 MPH (36 knots; 18.5 m/s)
Visibility: 6 or more miles (10+ km)
Ceiling: at least 12,000 feet AGL
Clouds: few clouds at 5800 feet AGL
scattered clouds at 8400 feet AGL
Weather: no significant weather observed at this time

METAR text: EFOU 161820Z AUTO 25022G39KT CAVOK 02/M05 Q0987
Conditions at: EFOU (OULU/ULEABORG , FI) observed 1820 UTC 16 February 2019
Temperature: 2.0°C (36°F)
Dewpoint: -5.0°C (23°F) [RH = 60%]
Pressure (altimeter): 29.14 inches Hg (987.0 mb)
Winds: from the WSW (250 degrees) at 25 MPH (22 knots; 11.3 m/s)
gusting to 45 MPH (39 knots; 20.1 m/s)
Visibility: 6 or more miles (10+ km)
Ceiling: ceiling and visibility are OK
Clouds: unknown
Weather: no significant weather observed at this time

METAR text: EFOU 161750Z AUTO 25023G35KT CAVOK 03/M05 Q0987
Conditions at: EFOU (OULU/ULEABORG , FI) observed 1750 UTC 16 February 2019
Temperature: 3.0°C (37°F)
Dewpoint: -5.0°C (23°F) [RH = 56%]
Pressure (altimeter): 29.14 inches Hg (987.0 mb)
Winds: from the WSW (250 degrees) at 26 MPH (23 knots; 11.8 m/s)
gusting to 40 MPH (35 knots; 18.0 m/s)
Visibility: 6 or more miles (10+ km)
Ceiling: ceiling and visibility are OK
Clouds: unknown
Weather: no significant weather observed at this time

METAR text: EFOU 161720Z AUTO 25022G32KT CAVOK 03/M05 Q0988
Conditions at: EFOU (OULU/ULEABORG , FI) observed 1720 UTC 16 February 2019
Temperature: 3.0°C (37°F)
Dewpoint: -5.0°C (23°F) [RH = 56%]
Pressure (altimeter): 29.17 inches Hg (988.0 mb)
Winds: from the WSW (250 degrees) at 25 MPH (22 knots; 11.3 m/s)
gusting to 37 MPH (32 knots; 16.5 m/s)
Visibility: 6 or more miles (10+ km)
Ceiling: ceiling and visibility are OK
Clouds: unknown
Weather: no significant weather observed at this time

METAR text: EFOU 161650Z AUTO 26021G32KT CAVOK 03/M05 Q0988
Conditions at: EFOU (OULU/ULEABORG , FI) observed 1650 UTC 16 February 2019
Temperature: 3.0°C (37°F)
Dewpoint: -5.0°C (23°F) [RH = 56%]
Pressure (altimeter): 29.17 inches Hg (988.0 mb)
Winds: from the W (260 degrees) at 24 MPH (21 knots; 10.8 m/s)
gusting to 37 MPH (32 knots; 16.5 m/s)
Visibility: 6 or more miles (10+ km)
Ceiling: ceiling and visibility are OK
Clouds: unknown
Weather: no significant weather observed at this time

METAR text: EFOU 161620Z AUTO 25019G29KT CAVOK 03/M05 Q0989
Conditions at: EFOU (OULU/ULEABORG , FI) observed 1620 UTC 16 February 2019
Temperature: 3.0°C (37°F)
Dewpoint: -5.0°C (23°F) [RH = 56%]
Pressure (altimeter): 29.20 inches Hg (989.0 mb)
Winds: from the WSW (250 degrees) at 22 MPH (19 knots; 9.8 m/s)
gusting to 33 MPH (29 knots; 14.9 m/s)
Visibility: 6 or more miles (10+ km)
Ceiling: ceiling and visibility are OK
Clouds: unknown
Weather: no significant weather observed at this time

METAR text: EFOU 161550Z AUTO 24016KT CAVOK 04/M04 Q0989
Conditions at: EFOU (OULU/ULEABORG , FI) observed 1550 UTC 16 February 2019
Temperature: 4.0°C (39°F)
Dewpoint: -4.0°C (25°F) [RH = 56%]
Pressure (altimeter): 29.20 inches Hg (989.0 mb)
Winds: from the WSW (240 degrees) at 18 MPH (16 knots; 8.2 m/s)
Visibility: 6 or more miles (10+ km)
Ceiling: ceiling and visibility are OK
Clouds: unknown
Weather: no significant weather observed at this time

METAR text: EFOU 161520Z AUTO 25015KT 220V280 CAVOK 04/M03 Q0990
Conditions at: EFOU (OULU/ULEABORG , FI) observed 1520 UTC 16 February 2019
Temperature: 4.0°C (39°F)
Dewpoint: -3.0°C (27°F) [RH = 60%]
Pressure (altimeter): 29.23 inches Hg (990.0 mb)
Winds: from the WSW (250 degrees) at 17 MPH (15 knots; 7.7 m/s)
Visibility: 6 or more miles (10+ km)
Ceiling: ceiling and visibility are OK
Clouds: unknown
Weather: no significant weather observed at this time

METAR text: EFOU 161450Z AUTO 25015KT CAVOK 04/M03 Q0990
Conditions at: EFOU (OULU/ULEABORG , FI) observed 1450 UTC 16 February 2019
Temperature: 4.0°C (39°F)
Dewpoint: -3.0°C (27°F) [RH = 60%]
Pressure (altimeter): 29.23 inches Hg (990.0 mb)
Winds: from the WSW (250 degrees) at 17 MPH (15 knots; 7.7 m/s)
Visibility: 6 or more miles (10+ km)
Ceiling: ceiling and visibility are OK
Clouds: unknown
Weather: no significant weather observed at this time

METAR text: EFOU 161420Z AUTO 25013KT CAVOK 04/M03 Q0991
Conditions at: EFOU (OULU/ULEABORG , FI) observed 1420 UTC 16 February 2019
Temperature: 4.0°C (39°F)
Dewpoint: -3.0°C (27°F) [RH = 60%]
Pressure (altimeter): 29.26 inches Hg (991.0 mb)
Winds: from the WSW (250 degrees) at 15 MPH (13 knots; 6.7 m/s)
Visibility: 6 or more miles (10+ km)
Ceiling: ceiling and visibility are OK
Clouds: unknown
Weather: no significant weather observed at this time

METAR text: EFOU 161350Z AUTO 25014KT CAVOK 04/M02 Q0991
Conditions at: EFOU (OULU/ULEABORG , FI) observed 1350 UTC 16 February 2019
Temperature: 4.0°C (39°F)
Dewpoint: -2.0°C (28°F) [RH = 65%]
Pressure (altimeter): 29.26 inches Hg (991.0 mb)
Winds: from the WSW (250 degrees) at 16 MPH (14 knots; 7.2 m/s)
Visibility: 6 or more miles (10+ km)
Ceiling: ceiling and visibility are OK
Clouds: unknown
Weather: no significant weather observed at this time

METAR text: EFOU 161320Z AUTO 25014KT CAVOK 04/M02 Q0991
Conditions at: EFOU (OULU/ULEABORG , FI) observed 1320 UTC 16 February 2019
Temperature: 4.0°C (39°F)
Dewpoint: -2.0°C (28°F) [RH = 65%]
Pressure (altimeter): 29.26 inches Hg (991.0 mb)
Winds: from the WSW (250 degrees) at 16 MPH (14 knots; 7.2 m/s)
Visibility: 6 or more miles (10+ km)
Ceiling: ceiling and visibility are OK
Clouds: unknown
Weather: no significant weather observed at this time

METAR text: EFOU 161250Z AUTO 25012KT CAVOK 04/M01 Q0991
Conditions at: EFOU (OULU/ULEABORG , FI) observed 1250 UTC 16 February 2019
Temperature: 4.0°C (39°F)
Dewpoint: -1.0°C (30°F) [RH = 70%]
Pressure (altimeter): 29.26 inches Hg (991.0 mb)
Winds: from the WSW (250 degrees) at 14 MPH (12 knots; 6.2 m/s)
Visibility: 6 or more miles (10+ km)
Ceiling: ceiling and visibility are OK
Clouds: unknown
Weather: no significant weather observed at this time

METAR text: EFOU 161220Z AUTO 24010KT CAVOK 04/M00 Q0992
Conditions at: EFOU (OULU/ULEABORG , FI) observed 1220 UTC 16 February 2019
Temperature: 4.0°C (39°F)
Dewpoint: 0.0°C (32°F) [RH = 75%]
Pressure (altimeter): 29.29 inches Hg (992.0 mb)
Winds: from the WSW (240 degrees) at 12 MPH (10 knots; 5.1 m/s)
Visibility: 6 or more miles (10+ km)
Ceiling: ceiling and visibility are OK
Clouds: unknown
Weather: no significant weather observed at this time

METAR text: EFOU 161150Z AUTO 23010KT 9999 FEW100/// 04/M00 Q0992
Conditions at: EFOU (OULU/ULEABORG , FI) observed 1150 UTC 16 February 2019
Temperature: 4.0°C (39°F)
Dewpoint: 0.0°C (32°F) [RH = 75%]
Pressure (altimeter): 29.29 inches Hg (992.0 mb)
Winds: from the SW (230 degrees) at 12 MPH (10 knots; 5.1 m/s)
Visibility: 6 or more miles (10+ km)
Ceiling: at least 12,000 feet AGL
Clouds: few clouds at 10000 feet AGL
Weather: no significant weather observed at this time

METAR text: EFOU 161120Z AUTO 23010KT 9999 SCT087/// 04/M00 Q0992
Conditions at: EFOU (OULU/ULEABORG , FI) observed 1120 UTC 16 February 2019
Temperature: 4.0°C (39°F)
Dewpoint: 0.0°C (32°F) [RH = 75%]
Pressure (altimeter): 29.29 inches Hg (992.0 mb)
Winds: from the SW (230 degrees) at 12 MPH (10 knots; 5.1 m/s)
Visibility: 6 or more miles (10+ km)
Ceiling: at least 12,000 feet AGL
Clouds: scattered clouds at 8700 feet AGL
Weather: no significant weather observed at this time

METAR text: EFOU 161050Z AUTO 24009KT 9999 BKN095/// 03/00 Q0992
Conditions at: EFOU (OULU/ULEABORG , FI) observed 1050 UTC 16 February 2019
Temperature: 3.0°C (37°F)
Dewpoint: 0.0°C (32°F) [RH = 81%]
Pressure (altimeter): 29.29 inches Hg (992.0 mb)
Winds: from the WSW (240 degrees) at 10 MPH (9 knots; 4.6 m/s)
Visibility: 6 or more miles (10+ km)
Ceiling: 9500 feet AGL
Clouds: broken clouds at 9500 feet AGL
Weather: no significant weather observed at this time

METAR text: EFOU 161020Z AUTO 22008KT CAVOK 03/00 Q0993
Conditions at: EFOU (OULU/ULEABORG , FI) observed 1020 UTC 16 February 2019
Temperature: 3.0°C (37°F)
Dewpoint: 0.0°C (32°F) [RH = 81%]
Pressure (altimeter): 29.32 inches Hg (993.0 mb)
Winds: from the SW (220 degrees) at 9 MPH (8 knots; 4.1 m/s)
Visibility: 6 or more miles (10+ km)
Ceiling: ceiling and visibility are OK
Clouds: unknown
Weather: no significant weather observed at this time

METAR text: EFOU 160950Z AUTO 22011KT CAVOK 02/00 Q0993
Conditions at: EFOU (OULU/ULEABORG , FI) observed 0950 UTC 16 February 2019
Temperature: 2.0°C (36°F)
Dewpoint: 0.0°C (32°F) [RH = 87%]
Pressure (altimeter): 29.32 inches Hg (993.0 mb)
Winds: from the SW (220 degrees) at 13 MPH (11 knots; 5.7 m/s)
Visibility: 6 or more miles (10+ km)
Ceiling: ceiling and visibility are OK
Clouds: unknown
Weather: no significant weather observed at this time

METAR text: EFOU 160920Z AUTO 22011KT 9999 OVC100/// 02/00 Q0993
Conditions at: EFOU (OULU/ULEABORG , FI) observed 0920 UTC 16 February 2019
Temperature: 2.0°C (36°F)
Dewpoint: 0.0°C (32°F) [RH = 87%]
Pressure (altimeter): 29.32 inches Hg (993.0 mb)
Winds: from the SW (220 degrees) at 13 MPH (11 knots; 5.7 m/s)
Visibility: 6 or more miles (10+ km)
Ceiling: 10000 feet AGL
Clouds: overcast cloud deck at 10000 feet AGL
Weather: no significant weather observed at this time

METAR text: EFOU 160850Z AUTO 22013KT 9999 OVC092/// 02/00 Q0994
Conditions at: EFOU (OULU/ULEABORG , FI) observed 0850 UTC 16 February 2019
Temperature: 2.0°C (36°F)
Dewpoint: 0.0°C (32°F) [RH = 87%]
Pressure (altimeter): 29.35 inches Hg (994.0 mb)
Winds: from the SW (220 degrees) at 15 MPH (13 knots; 6.7 m/s)
Visibility: 6 or more miles (10+ km)
Ceiling: 9200 feet AGL
Clouds: overcast cloud deck at 9200 feet AGL
Weather: no significant weather observed at this time

METAR text: EFOU 160820Z AUTO 22013G24KT 9999 SCT012/// BKN091/// 02/00 Q0994
Conditions at: EFOU (OULU/ULEABORG , FI) observed 0820 UTC 16 February 2019
Temperature: 2.0°C (36°F)
Dewpoint: 0.0°C (32°F) [RH = 87%]
Pressure (altimeter): 29.35 inches Hg (994.0 mb)
Winds: from the SW (220 degrees) at 15 MPH (13 knots; 6.7 m/s)
gusting to 28 MPH (24 knots; 12.3 m/s)
Visibility: 6 or more miles (10+ km)
Ceiling: 9100 feet AGL
Clouds: scattered clouds at 1200 feet AGL
broken clouds at 9100 feet AGL
Weather: no significant weather observed at this time

METAR text: EFOU 160750Z AUTO 24007KT 180V290 9999 FEW012/// OVC100/// 01/00 Q0995
Conditions at: EFOU (OULU/ULEABORG , FI) observed 0750 UTC 16 February 2019
Temperature: 1.0°C (34°F)
Dewpoint: 0.0°C (32°F) [RH = 93%]
Pressure (altimeter): 29.38 inches Hg (995.0 mb)
Winds: from the WSW (240 degrees) at 8 MPH (7 knots; 3.6 m/s)
Visibility: 6 or more miles (10+ km)
Ceiling: 10000 feet AGL
Clouds: few clouds at 1200 feet AGL
overcast cloud deck at 10000 feet AGL
Weather: no significant weather observed at this time

METAR text: EFOU 160720Z AUTO 19007KT 9999 BKN100/// 01/M00 Q0995
Conditions at: EFOU (OULU/ULEABORG , FI) observed 0720 UTC 16 February 2019
Temperature: 1.0°C (34°F)
Dewpoint: 0.0°C (32°F) [RH = 93%]
Pressure (altimeter): 29.38 inches Hg (995.0 mb)
Winds: from the S (190 degrees) at 8 MPH (7 knots; 3.6 m/s)
Visibility: 6 or more miles (10+ km)
Ceiling: 10000 feet AGL
Clouds: broken clouds at 10000 feet AGL
Weather: no significant weather observed at this time

METAR text: EFOU 160650Z AUTO 18007KT CAVOK 00/M01 Q0995
Conditions at: EFOU (OULU/ULEABORG , FI) observed 0650 UTC 16 February 2019
Temperature: 0.0°C (32°F)
Dewpoint: -1.0°C (30°F) [RH = 93%]
Pressure (altimeter): 29.38 inches Hg (995.0 mb)
Winds: from the S (180 degrees) at 8 MPH (7 knots; 3.6 m/s)
Visibility: 6 or more miles (10+ km)
Ceiling: ceiling and visibility are OK
Clouds: unknown
Weather: no significant weather observed at this time

METAR text: EFOU 160620Z AUTO 17008KT CAVOK 00/M01 Q0996
Conditions at: EFOU (OULU/ULEABORG , FI) observed 0620 UTC 16 February 2019
Temperature: 0.0°C (32°F)
Dewpoint: -1.0°C (30°F) [RH = 93%]
Pressure (altimeter): 29.41 inches Hg (996.0 mb)
Winds: from the S (170 degrees) at 9 MPH (8 knots; 4.1 m/s)
Visibility: 6 or more miles (10+ km)
Ceiling: ceiling and visibility are OK
Clouds: unknown
Weather: no significant weather observed at this time

METAR text: EFOU 160550Z AUTO 17008KT CAVOK M00/M01 Q0996
Conditions at: EFOU (OULU/ULEABORG , FI) observed 0550 UTC 16 February 2019
Temperature: 0.0°C (32°F)
Dewpoint: -1.0°C (30°F) [RH = 93%]
Pressure (altimeter): 29.41 inches Hg (996.0 mb)
Winds: from the S (170 degrees) at 9 MPH (8 knots; 4.1 m/s)
Visibility: 6 or more miles (10+ km)
Ceiling: ceiling and visibility are OK
Clouds: unknown
Weather: no significant weather observed at this time

METAR text: EFOU 160520Z AUTO 17009KT CAVOK M00/M01 Q0997
Conditions at: EFOU (OULU/ULEABORG , FI) observed 0520 UTC 16 February 2019
Temperature: 0.0°C (32°F)
Dewpoint: -1.0°C (30°F) [RH = 93%]
Pressure (altimeter): 29.44 inches Hg (997.0 mb)
Winds: from the S (170 degrees) at 10 MPH (9 knots; 4.6 m/s)
Visibility: 6 or more miles (10+ km)
Ceiling: ceiling and visibility are OK
Clouds: unknown
Weather: no significant weather observed at this time

METAR text: EFOU 160450Z AUTO 17009KT CAVOK M00/M01 Q0998
Conditions at: EFOU (OULU/ULEABORG , FI) observed 0450 UTC 16 February 2019
Temperature: 0.0°C (32°F)
Dewpoint: -1.0°C (30°F) [RH = 93%]
Pressure (altimeter): 29.47 inches Hg (998.0 mb)
Winds: from the S (170 degrees) at 10 MPH (9 knots; 4.6 m/s)
Visibility: 6 or more miles (10+ km)
Ceiling: ceiling and visibility are OK
Clouds: unknown
Weather: no significant weather observed at this time

METAR text: EFOU 160420Z AUTO 18010KT CAVOK 00/M01 Q0999
Conditions at: EFOU (OULU/ULEABORG , FI) observed 0420 UTC 16 February 2019
Temperature: 0.0°C (32°F)
Dewpoint: -1.0°C (30°F) [RH = 93%]
Pressure (altimeter): 29.50 inches Hg (999.0 mb)
Winds: from the S (180 degrees) at 12 MPH (10 knots; 5.1 m/s)
Visibility: 6 or more miles (10+ km)
Ceiling: ceiling and visibility are OK
Clouds: unknown
Weather: no significant weather observed at this time

METAR text: EFOU 160350Z AUTO 17009KT CAVOK 00/M01 Q0999
Conditions at: EFOU (OULU/ULEABORG , FI) observed 0350 UTC 16 February 2019
Temperature: 0.0°C (32°F)
Dewpoint: -1.0°C (30°F) [RH = 93%]
Pressure (altimeter): 29.50 inches Hg (999.0 mb)
Winds: from the S (170 degrees) at 10 MPH (9 knots; 4.6 m/s)
Visibility: 6 or more miles (10+ km)
Ceiling: ceiling and visibility are OK
Clouds: unknown
Weather: no significant weather observed at this time

METAR text: EFOU 160320Z AUTO 17006KT CAVOK 00/M00 Q1000
Conditions at: EFOU (OULU/ULEABORG , FI) observed 0320 UTC 16 February 2019
Temperature: 0.0°C (32°F)
Dewpoint: 0.0°C (32°F) [RH = 100%]
Pressure (altimeter): 29.53 inches Hg (1000.0 mb)
Winds: from the S (170 degrees) at 7 MPH (6 knots; 3.1 m/s)
Visibility: 6 or more miles (10+ km)
Ceiling: ceiling and visibility are OK
Clouds: unknown
Weather: no significant weather observed at this time

METAR text: EFOU 160250Z AUTO 14006KT CAVOK 00/M01 Q1001
Conditions at: EFOU (OULU/ULEABORG , FI) observed 0250 UTC 16 February 2019
Temperature: 0.0°C (32°F)
Dewpoint: -1.0°C (30°F) [RH = 93%]
Pressure (altimeter): 29.56 inches Hg (1001.0 mb)
Winds: from the SE (140 degrees) at 7 MPH (6 knots; 3.1 m/s)
Visibility: 6 or more miles (10+ km)
Ceiling: ceiling and visibility are OK
Clouds: unknown
Weather: no significant weather observed at this time

METAR text: EFOU 160220Z AUTO 16006KT 9999 FEW045/// 00/M01 Q1002
Conditions at: EFOU (OULU/ULEABORG , FI) observed 0220 UTC 16 February 2019
Temperature: 0.0°C (32°F)
Dewpoint: -1.0°C (30°F) [RH = 93%]
Pressure (altimeter): 29.59 inches Hg (1002.0 mb)
Winds: from the SSE (160 degrees) at 7 MPH (6 knots; 3.1 m/s)
Visibility: 6 or more miles (10+ km)
Ceiling: at least 12,000 feet AGL
Clouds: few clouds at 4500 feet AGL
Weather: no significant weather observed at this time

METAR text: EFOU 160150Z AUTO 17006KT 9999 SCT044/// 00/M01 Q1003
Conditions at: EFOU (OULU/ULEABORG , FI) observed 0150 UTC 16 February 2019
Temperature: 0.0°C (32°F)
Dewpoint: -1.0°C (30°F) [RH = 93%]
Pressure (altimeter): 29.62 inches Hg (1003.0 mb)
Winds: from the S (170 degrees) at 7 MPH (6 knots; 3.1 m/s)
Visibility: 6 or more miles (10+ km)
Ceiling: at least 12,000 feet AGL
Clouds: scattered clouds at 4400 feet AGL
Weather: no significant weather observed at this time

METAR text: EFOU 160120Z AUTO 16004KT CAVOK 00/M01 Q1004
Conditions at: EFOU (OULU/ULEABORG , FI) observed 0120 UTC 16 February 2019
Temperature: 0.0°C (32°F)
Dewpoint: -1.0°C (30°F) [RH = 93%]
Pressure (altimeter): 29.65 inches Hg (1004.0 mb)
Winds: from the SSE (160 degrees) at 5 MPH (4 knots; 2.1 m/s)
Visibility: 6 or more miles (10+ km)
Ceiling: ceiling and visibility are OK
Clouds: unknown
Weather: no significant weather observed at this time

METAR text: EFOU 160050Z AUTO 12005KT CAVOK M00/M01 Q1004
Conditions at: EFOU (OULU/ULEABORG , FI) observed 0050 UTC 16 February 2019
Temperature: 0.0°C (32°F)
Dewpoint: -1.0°C (30°F) [RH = 93%]
Pressure (altimeter): 29.65 inches Hg (1004.0 mb)
Winds: from the ESE (120 degrees) at 6 MPH (5 knots; 2.6 m/s)
Visibility: 6 or more miles (10+ km)
Ceiling: ceiling and visibility are OK
Clouds: unknown
Weather: no significant weather observed at this time

METAR text: EFOU 160020Z AUTO 17005KT CAVOK M00/M01 Q1004
Conditions at: EFOU (OULU/ULEABORG , FI) observed 0020 UTC 16 February 2019
Temperature: 0.0°C (32°F)
Dewpoint: -1.0°C (30°F) [RH = 93%]
Pressure (altimeter): 29.65 inches Hg (1004.0 mb)
Winds: from the S (170 degrees) at 6 MPH (5 knots; 2.6 m/s)
Visibility: 6 or more miles (10+ km)
Ceiling: ceiling and visibility are OK
Clouds: unknown
Weather: no significant weather observed at this time

METAR text: EFOU 152350Z AUTO 18004KT 9999 FEW100/// M00/M02 Q1005
Conditions at: EFOU (OULU/ULEABORG , FI) observed 2350 UTC 15 February 2019
Temperature: 0.0°C (32°F)
Dewpoint: -2.0°C (28°F) [RH = 86%]
Pressure (altimeter): 29.68 inches Hg (1005.0 mb)
Winds: from the S (180 degrees) at 5 MPH (4 knots; 2.1 m/s)
Visibility: 6 or more miles (10+ km)
Ceiling: at least 12,000 feet AGL
Clouds: few clouds at 10000 feet AGL
Weather: no significant weather observed at this time

METAR text: EFOU 152320Z AUTO 19005KT 9999 FEW087/// OVC100/// M00/M02 Q1006
Conditions at: EFOU (OULU/ULEABORG , FI) observed 2320 UTC 15 February 2019
Temperature: 0.0°C (32°F)
Dewpoint: -2.0°C (28°F) [RH = 86%]
Pressure (altimeter): 29.70 inches Hg (1006.0 mb)
Winds: from the S (190 degrees) at 6 MPH (5 knots; 2.6 m/s)
Visibility: 6 or more miles (10+ km)
Ceiling: 10000 feet AGL
Clouds: few clouds at 8700 feet AGL
overcast cloud deck at 10000 feet AGL
Weather: no significant weather observed at this time

METAR text: EFOU 152250Z AUTO 13003KT 9999 SCT071/// BKN086/// M01/M03 Q1006
Conditions at: EFOU (OULU/ULEABORG , FI) observed 2250 UTC 15 February 2019
Temperature: -1.0°C (30°F)
Dewpoint: -3.0°C (27°F) [RH = 86%]
Pressure (altimeter): 29.70 inches Hg (1006.0 mb)
Winds: from the SE (130 degrees) at 3 MPH (3 knots; 1.5 m/s)
Visibility: 6 or more miles (10+ km)
Ceiling: 8600 feet AGL
Clouds: scattered clouds at 7100 feet AGL
broken clouds at 8600 feet AGL
Weather: no significant weather observed at this time

METAR text: EFOU 152220Z AUTO 14003KT 9999 BKN078/// BKN097/// M01/M02 Q1006
Conditions at: EFOU (OULU/ULEABORG , FI) observed 2220 UTC 15 February 2019
Temperature: -1.0°C (30°F)
Dewpoint: -2.0°C (28°F) [RH = 93%]
Pressure (altimeter): 29.70 inches Hg (1006.0 mb)
Winds: from the SE (140 degrees) at 3 MPH (3 knots; 1.5 m/s)
Visibility: 6 or more miles (10+ km)
Ceiling: 7800 feet AGL
Clouds: broken clouds at 7800 feet AGL
broken clouds at 9700 feet AGL
Weather: no significant weather observed at this time

METAR text: EFOU 152150Z AUTO VRB02KT CAVOK 00/M01 Q1006
Conditions at: EFOU (OULU/ULEABORG , FI) observed 2150 UTC 15 February 2019
Temperature: 0.0°C (32°F)
Dewpoint: -1.0°C (30°F) [RH = 93%]
Pressure (altimeter): 29.70 inches Hg (1006.0 mb)
Winds: variable direction winds at 2 MPH (2 knots; 1.0 m/s)
Visibility: 6 or more miles (10+ km)
Ceiling: ceiling and visibility are OK
Clouds: unknown
Weather: no significant weather observed at this time

METAR text: EFOU 152120Z AUTO 25006KT 9999 FEW071/// BKN087/// 00/M01 Q1007
Conditions at: EFOU (OULU/ULEABORG , FI) observed 2120 UTC 15 February 2019
Temperature: 0.0°C (32°F)
Dewpoint: -1.0°C (30°F) [RH = 93%]
Pressure (altimeter): 29.73 inches Hg (1007.0 mb)
Winds: from the WSW (250 degrees) at 7 MPH (6 knots; 3.1 m/s)
Visibility: 6 or more miles (10+ km)
Ceiling: 8700 feet AGL
Clouds: few clouds at 7100 feet AGL
broken clouds at 8700 feet AGL
Weather: no significant weather observed at this time

METAR text: EFOU 152050Z AUTO 24004KT 9999 BKN086/// 00/M02 Q1007
Conditions at: EFOU (OULU/ULEABORG , FI) observed 2050 UTC 15 February 2019
Temperature: 0.0°C (32°F)
Dewpoint: -2.0°C (28°F) [RH = 86%]
Pressure (altimeter): 29.73 inches Hg (1007.0 mb)
Winds: from the WSW (240 degrees) at 5 MPH (4 knots; 2.1 m/s)
Visibility: 6 or more miles (10+ km)
Ceiling: 8600 feet AGL
Clouds: broken clouds at 8600 feet AGL
Weather: no significant weather observed at this time

METAR text: EFOU 152020Z AUTO 25005KT 9999 BKN095/// M00/M02 Q1007
Conditions at: EFOU (OULU/ULEABORG , FI) observed 2020 UTC 15 February 2019
Temperature: 0.0°C (32°F)
Dewpoint: -2.0°C (28°F) [RH = 86%]
Pressure (altimeter): 29.73 inches Hg (1007.0 mb)
Winds: from the WSW (250 degrees) at 6 MPH (5 knots; 2.6 m/s)
Visibility: 6 or more miles (10+ km)
Ceiling: 9500 feet AGL
Clouds: broken clouds at 9500 feet AGL
Weather: no significant weather observed at this time

METAR text: EFOU 151950Z AUTO 26006KT 9999 SCT100/// M01/M02 Q1007
Conditions at: EFOU (OULU/ULEABORG , FI) observed 1950 UTC 15 February 2019
Temperature: -1.0°C (30°F)
Dewpoint: -2.0°C (28°F) [RH = 93%]
Pressure (altimeter): 29.73 inches Hg (1007.0 mb)
Winds: from the W (260 degrees) at 7 MPH (6 knots; 3.1 m/s)
Visibility: 6 or more miles (10+ km)
Ceiling: at least 12,000 feet AGL
Clouds: scattered clouds at 10000 feet AGL
Weather: no significant weather observed at this time

METAR text: EFOU 151920Z AUTO 27009KT CAVOK M01/M02 Q1007
Conditions at: EFOU (OULU/ULEABORG , FI) observed 1920 UTC 15 February 2019
Temperature: -1.0°C (30°F)
Dewpoint: -2.0°C (28°F) [RH = 93%]
Pressure (altimeter): 29.73 inches Hg (1007.0 mb)
Winds: from the W (270 degrees) at 10 MPH (9 knots; 4.6 m/s)
Visibility: 6 or more miles (10+ km)
Ceiling: ceiling and visibility are OK
Clouds: unknown
Weather: no significant weather observed at this time

METAR text: EFOU 151850Z AUTO 27008KT CAVOK M01/M02 Q1007
Conditions at: EFOU (OULU/ULEABORG , FI) observed 1850 UTC 15 February 2019
Temperature: -1.0°C (30°F)
Dewpoint: -2.0°C (28°F) [RH = 93%]
Pressure (altimeter): 29.73 inches Hg (1007.0 mb)
Winds: from the W (270 degrees) at 9 MPH (8 knots; 4.1 m/s)
Visibility: 6 or more miles (10+ km)
Ceiling: ceiling and visibility are OK
Clouds: unknown
Weather: no significant weather observed at this time

METAR text: EFOU 151820Z AUTO 27011KT CAVOK M00/M02 Q1007
Conditions at: EFOU (OULU/ULEABORG , FI) observed 1820 UTC 15 February 2019
Temperature: 0.0°C (32°F)
Dewpoint: -2.0°C (28°F) [RH = 86%]
Pressure (altimeter): 29.73 inches Hg (1007.0 mb)
Winds: from the W (270 degrees) at 13 MPH (11 knots; 5.7 m/s)
Visibility: 6 or more miles (10+ km)
Ceiling: ceiling and visibility are OK
Clouds: unknown
Weather: no significant weather observed at this time

METAR text: EFOU 151750Z AUTO 27011KT CAVOK M00/M02 Q1007
Conditions at: EFOU (OULU/ULEABORG , FI) observed 1750 UTC 15 February 2019
Temperature: 0.0°C (32°F)
Dewpoint: -2.0°C (28°F) [RH = 86%]
Pressure (altimeter): 29.73 inches Hg (1007.0 mb)
Winds: from the W (270 degrees) at 13 MPH (11 knots; 5.7 m/s)
Visibility: 6 or more miles (10+ km)
Ceiling: ceiling and visibility are OK
Clouds: unknown
Weather: no significant weather observed at this time

METAR text: EFOU 151720Z AUTO 27013KT CAVOK 00/M02 Q1007
Conditions at: EFOU (OULU/ULEABORG , FI) observed 1720 UTC 15 February 2019
Temperature: 0.0°C (32°F)
Dewpoint: -2.0°C (28°F) [RH = 86%]
Pressure (altimeter): 29.73 inches Hg (1007.0 mb)
Winds: from the W (270 degrees) at 15 MPH (13 knots; 6.7 m/s)
Visibility: 6 or more miles (10+ km)
Ceiling: ceiling and visibility are OK
Clouds: unknown
Weather: no significant weather observed at this time

METAR text: EFOU 151650Z AUTO 27012KT CAVOK M00/M02 Q1007
Conditions at: EFOU (OULU/ULEABORG , FI) observed 1650 UTC 15 February 2019
Temperature: 0.0°C (32°F)
Dewpoint: -2.0°C (28°F) [RH = 86%]
Pressure (altimeter): 29.73 inches Hg (1007.0 mb)
Winds: from the W (270 degrees) at 14 MPH (12 knots; 6.2 m/s)
Visibility: 6 or more miles (10+ km)
Ceiling: ceiling and visibility are OK
Clouds: unknown
Weather: no significant weather observed at this time

METAR text: EFOU 151620Z AUTO 27013KT CAVOK 00/M02 Q1007
Conditions at: EFOU (OULU/ULEABORG , FI) observed 1620 UTC 15 February 2019
Temperature: 0.0°C (32°F)
Dewpoint: -2.0°C (28°F) [RH = 86%]
Pressure (altimeter): 29.73 inches Hg (1007.0 mb)
Winds: from the W (270 degrees) at 15 MPH (13 knots; 6.7 m/s)
Visibility: 6 or more miles (10+ km)
Ceiling: ceiling and visibility are OK
Clouds: unknown
Weather: no significant weather observed at this time

METAR text: EFOU 151550Z AUTO 28014KT CAVOK 00/M02 Q1007
Conditions at: EFOU (OULU/ULEABORG , FI) observed 1550 UTC 15 February 2019
Temperature: 0.0°C (32°F)
Dewpoint: -2.0°C (28°F) [RH = 86%]
Pressure (altimeter): 29.73 inches Hg (1007.0 mb)
Winds: from the W (280 degrees) at 16 MPH (14 knots; 7.2 m/s)
Visibility: 6 or more miles (10+ km)
Ceiling: ceiling and visibility are OK
Clouds: unknown
Weather: no significant weather observed at this time

METAR text: EFOU 151520Z AUTO 27015KT CAVOK 01/M02 Q1007
Conditions at: EFOU (OULU/ULEABORG , FI) observed 1520 UTC 15 February 2019
Temperature: 1.0°C (34°F)
Dewpoint: -2.0°C (28°F) [RH = 80%]
Pressure (altimeter): 29.73 inches Hg (1007.0 mb)
Winds: from the W (270 degrees) at 17 MPH (15 knots; 7.7 m/s)
Visibility: 6 or more miles (10+ km)
Ceiling: ceiling and visibility are OK
Clouds: unknown
Weather: no significant weather observed at this time

METAR text: EFOU 151450Z AUTO 27016KT CAVOK 01/M02 Q1006
Conditions at: EFOU (OULU/ULEABORG , FI) observed 1450 UTC 15 February 2019
Temperature: 1.0°C (34°F)
Dewpoint: -2.0°C (28°F) [RH = 80%]
Pressure (altimeter): 29.70 inches Hg (1006.0 mb)
Winds: from the W (270 degrees) at 18 MPH (16 knots; 8.2 m/s)
Visibility: 6 or more miles (10+ km)
Ceiling: ceiling and visibility are OK
Clouds: unknown
Weather: no significant weather observed at this time

METAR text: EFOU 151420Z AUTO 27016KT CAVOK 02/M02 Q1006
Conditions at: EFOU (OULU/ULEABORG , FI) observed 1420 UTC 15 February 2019
Temperature: 2.0°C (36°F)
Dewpoint: -2.0°C (28°F) [RH = 75%]
Pressure (altimeter): 29.70 inches Hg (1006.0 mb)
Winds: from the W (270 degrees) at 18 MPH (16 knots; 8.2 m/s)
Visibility: 6 or more miles (10+ km)
Ceiling: ceiling and visibility are OK
Clouds: unknown
Weather: no significant weather observed at this time

METAR text: EFOU 151350Z AUTO 27017KT CAVOK 02/M02 Q1006
Conditions at: EFOU (OULU/ULEABORG , FI) observed 1350 UTC 15 February 2019
Temperature: 2.0°C (36°F)
Dewpoint: -2.0°C (28°F) [RH = 75%]
Pressure (altimeter): 29.70 inches Hg (1006.0 mb)
Winds: from the W (270 degrees) at 20 MPH (17 knots; 8.7 m/s)
Visibility: 6 or more miles (10+ km)
Ceiling: ceiling and visibility are OK
Clouds: unknown
Weather: no significant weather observed at this time

METAR text: EFOU 151320Z AUTO 27017KT CAVOK 02/M01 Q1005
Conditions at: EFOU (OULU/ULEABORG , FI) observed 1320 UTC 15 February 2019
Temperature: 2.0°C (36°F)
Dewpoint: -1.0°C (30°F) [RH = 80%]
Pressure (altimeter): 29.68 inches Hg (1005.0 mb)
Winds: from the W (270 degrees) at 20 MPH (17 knots; 8.7 m/s)
Visibility: 6 or more miles (10+ km)
Ceiling: ceiling and visibility are OK
Clouds: unknown
Weather: no significant weather observed at this time

METAR text: EFOU 151250Z AUTO 27018KT CAVOK 02/M01 Q1005
Conditions at: EFOU (OULU/ULEABORG , FI) observed 1250 UTC 15 February 2019
Temperature: 2.0°C (36°F)
Dewpoint: -1.0°C (30°F) [RH = 80%]
Pressure (altimeter): 29.68 inches Hg (1005.0 mb)
Winds: from the W (270 degrees) at 21 MPH (18 knots; 9.3 m/s)
Visibility: 6 or more miles (10+ km)
Ceiling: ceiling and visibility are OK
Clouds: unknown
Weather: no significant weather observed at this time

METAR text: EFOU 151220Z AUTO 27019KT CAVOK 02/M01 Q1004
Conditions at: EFOU (OULU/ULEABORG , FI) observed 1220 UTC 15 February 2019
Temperature: 2.0°C (36°F)
Dewpoint: -1.0°C (30°F) [RH = 80%]
Pressure (altimeter): 29.65 inches Hg (1004.0 mb)
Winds: from the W (270 degrees) at 22 MPH (19 knots; 9.8 m/s)
Visibility: 6 or more miles (10+ km)
Ceiling: ceiling and visibility are OK
Clouds: unknown
Weather: no significant weather observed at this time

METAR text: EFOU 151150Z AUTO 27021KT CAVOK 02/M01 Q1004
Conditions at: EFOU (OULU/ULEABORG , FI) observed 1150 UTC 15 February 2019
Temperature: 2.0°C (36°F)
Dewpoint: -1.0°C (30°F) [RH = 80%]
Pressure (altimeter): 29.65 inches Hg (1004.0 mb)
Winds: from the W (270 degrees) at 24 MPH (21 knots; 10.8 m/s)
Visibility: 6 or more miles (10+ km)
Ceiling: ceiling and visibility are OK
Clouds: unknown
Weather: no significant weather observed at this time

METAR text: EFOU 151120Z AUTO 27023G35KT CAVOK 02/M01 Q1003
Conditions at: EFOU (OULU/ULEABORG , FI) observed 1120 UTC 15 February 2019
Temperature: 2.0°C (36°F)
Dewpoint: -1.0°C (30°F) [RH = 80%]
Pressure (altimeter): 29.62 inches Hg (1003.0 mb)
Winds: from the W (270 degrees) at 26 MPH (23 knots; 11.8 m/s)
gusting to 40 MPH (35 knots; 18.0 m/s)
Visibility: 6 or more miles (10+ km)
Ceiling: ceiling and visibility are OK
Clouds: unknown
Weather: no significant weather observed at this time

METAR text: EFOU 151050Z AUTO 27021KT CAVOK 03/M02 Q1003
Conditions at: EFOU (OULU/ULEABORG , FI) observed 1050 UTC 15 February 2019
Temperature: 3.0°C (37°F)
Dewpoint: -2.0°C (28°F) [RH = 70%]
Pressure (altimeter): 29.62 inches Hg (1003.0 mb)
Winds: from the W (270 degrees) at 24 MPH (21 knots; 10.8 m/s)
Visibility: 6 or more miles (10+ km)
Ceiling: ceiling and visibility are OK
Clouds: unknown
Weather: no significant weather observed at this time

METAR text: EFOU 151020Z AUTO 27021KT CAVOK 03/M02 Q1002
Conditions at: EFOU (OULU/ULEABORG , FI) observed 1020 UTC 15 February 2019
Temperature: 3.0°C (37°F)
Dewpoint: -2.0°C (28°F) [RH = 70%]
Pressure (altimeter): 29.59 inches Hg (1002.0 mb)
Winds: from the W (270 degrees) at 24 MPH (21 knots; 10.8 m/s)
Visibility: 6 or more miles (10+ km)
Ceiling: ceiling and visibility are OK
Clouds: unknown
Weather: no significant weather observed at this time

Forecast for: EFOU (OULU/ULEABORG , FI)
Text: TAF EFOU 162026Z 1621/1721 26020KT CAVOK
Forecast period: 2100 UTC 16 February 2019 to 0600 UTC 17 February 2019
Forecast type: FROM: standard forecast or significant change
Winds: from the W (260 degrees) at 23 MPH (20 knots; 10.3 m/s)
Visibility: 6 or more miles 10+ km)
Ceiling: unknown
Clouds: missing
Weather: NSW  (no significant weather)
Text: TEMPO 1621/1706 29028G42KT 4000 -SHSN SCT040CB
Forecast period: 2100 UTC 16 February 2019 to 0600 UTC 17 February 2019
Forecast type: TEMPORARY: The following changes expected for less than half the time period
Winds: from the WNW (290 degrees) at 32 MPH (28 knots; 14.4 m/s)
gusting to 48 MPH (42 knots; 21.6 m/s)
Visibility: 2.49 miles (4.01 km)
Ceiling: at least 12,000 feet AGL
Clouds: scattered clouds at 4000 feet AGL
Weather: -SHSN  (light snow showers)
Text: BECMG 1706/1708 32016KT
Forecast period: 0600 to 1500 UTC 17 February 2019
Forecast type: BECOMING: Conditions expected to become as follows by 0800 UTC 17 February 2019
Winds: from the NW (320 degrees) at 18 MPH (16 knots; 8.2 m/s)
Visibility: 6 or more miles 10+ km)
Ceiling: unknown
Clouds: missing
Weather: NSW  (no significant weather)
Text: BECMG 1715/1717 26005KT
Forecast period: 1500 to 2100 UTC 17 February 2019
Forecast type: BECOMING: Conditions expected to become as follows by 1700 UTC 17 February 2019
Winds: from the W (260 degrees) at 6 MPH (5 knots; 2.6 m/s)
Visibility: 6 or more miles 10+ km)
Ceiling: unknown
Clouds: missing
Weather: NSW  (no significant weather)